sensor_id;sensor_type;location;lat;lon;timestamp;temperature;humidity
68943;DHT22;60852;52.190;4.422;2024-02-23T00:01:26;7.85;76.95
68943;DHT22;60852;52.190;4.422;2024-02-23T00:03:52;7.81;76.68
68943;DHT22;60852;52.190;4.422;2024-02-23T00:06:18;7.80;76.62
68943;DHT22;60852;52.190;4.422;2024-02-23T00:08:43;7.85;77.05
68943;DHT22;60852;52.190;4.422;2024-02-23T00:11:09;7.93;77.21
68943;DHT22;60852;52.190;4.422;2024-02-23T00:13:35;7.81;76.68
68943;DHT22;60852;52.190;4.422;2024-02-23T00:16:00;7.85;76.60
68943;DHT22;60852;52.190;4.422;2024-02-23T00:18:26;7.85;76.12
68943;DHT22;60852;52.190;4.422;2024-02-23T00:20:51;7.81;76.14
68943;DHT22;60852;52.190;4.422;2024-02-23T00:23:17;7.78;76.17
68943;DHT22;60852;52.190;4.422;2024-02-23T00:25:42;7.85;76.26
68943;DHT22;60852;52.190;4.422;2024-02-23T00:28:08;7.90;76.11
68943;DHT22;60852;52.190;4.422;2024-02-23T00:30:34;7.88;75.81
68943;DHT22;60852;52.190;4.422;2024-02-23T00:32:59;7.84;75.15
68943;DHT22;60852;52.190;4.422;2024-02-23T00:35:25;7.93;75.52
68943;DHT22;60852;52.190;4.422;2024-02-23T00:37:50;7.98;75.63
68943;DHT22;60852;52.190;4.422;2024-02-23T00:40:16;7.94;74.84
68943;DHT22;60852;52.190;4.422;2024-02-23T00:42:41;8.01;75.17
68943;DHT22;60852;52.190;4.422;2024-02-23T00:45:07;7.90;73.21
68943;DHT22;60852;52.190;4.422;2024-02-23T00:47:32;7.93;73.50
68943;DHT22;60852;52.190;4.422;2024-02-23T00:49:58;7.95;73.91
68943;DHT22;60852;52.190;4.422;2024-02-23T00:52:24;7.88;73.42
68943;DHT22;60852;52.190;4.422;2024-02-23T00:54:49;7.83;73.73
68943;DHT22;60852;52.190;4.422;2024-02-23T00:57:14;7.88;73.37
68943;DHT22;60852;52.190;4.422;2024-02-23T00:59:41;7.83;72.97
68943;DHT22;60852;52.190;4.422;2024-02-23T01:02:06;7.85;72.90
68943;DHT22;60852;52.190;4.422;2024-02-23T01:04:32;7.88;72.02
68943;DHT22;60852;52.190;4.422;2024-02-23T01:06:58;7.88;72.45
68943;DHT22;60852;52.190;4.422;2024-02-23T01:09:23;7.95;73.00
68943;DHT22;60852;52.190;4.422;2024-02-23T01:11:49;8.01;73.86
68943;DHT22;60852;52.190;4.422;2024-02-23T01:14:15;7.88;72.49
68943;DHT22;60852;52.190;4.422;2024-02-23T01:16:40;7.83;72.61
68943;DHT22;60852;52.190;4.422;2024-02-23T01:19:06;7.81;72.59
68943;DHT22;60852;52.190;4.422;2024-02-23T01:21:31;7.80;72.94
68943;DHT22;60852;52.190;4.422;2024-02-23T01:23:57;7.75;72.78
68943;DHT22;60852;52.190;4.422;2024-02-23T01:26:23;7.70;71.79
68943;DHT22;60852;52.190;4.422;2024-02-23T01:28:48;7.70;72.70
68943;DHT22;60852;52.190;4.422;2024-02-23T01:31:14;7.81;73.52
68943;DHT22;60852;52.190;4.422;2024-02-23T01:33:39;7.83;73.08
68943;DHT22;60852;52.190;4.422;2024-02-23T01:36:05;7.69;71.81
68943;DHT22;60852;52.190;4.422;2024-02-23T01:38:32;7.66;71.51
68943;DHT22;60852;52.190;4.422;2024-02-23T01:41:01;7.67;71.55
68943;DHT22;60852;52.190;4.422;2024-02-23T01:43:26;7.70;72.09
68943;DHT22;60852;52.190;4.422;2024-02-23T01:45:53;7.75;72.29
68943;DHT22;60852;52.190;4.422;2024-02-23T01:48:19;7.75;72.45
68943;DHT22;60852;52.190;4.422;2024-02-23T01:50:45;7.83;72.37
68943;DHT22;60852;52.190;4.422;2024-02-23T01:53:12;7.80;73.04
68943;DHT22;60852;52.190;4.422;2024-02-23T01:55:41;7.83;72.97
68943;DHT22;60852;52.190;4.422;2024-02-23T01:58:07;7.77;72.81
68943;DHT22;60852;52.190;4.422;2024-02-23T02:00:35;7.80;72.91
68943;DHT22;60852;52.190;4.422;2024-02-23T02:03:01;7.83;73.50
68943;DHT22;60852;52.190;4.422;2024-02-23T02:05:26;7.80;73.20
68943;DHT22;60852;52.190;4.422;2024-02-23T02:07:55;7.81;72.86
68943;DHT22;60852;52.190;4.422;2024-02-23T02:10:25;7.73;71.60
68943;DHT22;60852;52.190;4.422;2024-02-23T02:12:52;7.75;71.44
68943;DHT22;60852;52.190;4.422;2024-02-23T02:15:17;7.74;71.53
68943;DHT22;60852;52.190;4.422;2024-02-23T02:17:43;7.74;71.30
68943;DHT22;60852;52.190;4.422;2024-02-23T02:20:12;7.78;71.77
68943;DHT22;60852;52.190;4.422;2024-02-23T02:22:41;7.78;72.93
68943;DHT22;60852;52.190;4.422;2024-02-23T02:25:06;7.83;73.47
68943;DHT22;60852;52.190;4.422;2024-02-23T02:27:32;7.88;73.30
68943;DHT22;60852;52.190;4.422;2024-02-23T02:29:58;7.85;72.95
68943;DHT22;60852;52.190;4.422;2024-02-23T02:32:23;7.83;72.62
68943;DHT22;60852;52.190;4.422;2024-02-23T02:34:49;7.81;72.87
68943;DHT22;60852;52.190;4.422;2024-02-23T02:37:15;7.74;72.10
68943;DHT22;60852;52.190;4.422;2024-02-23T02:39:41;7.71;71.59
68943;DHT22;60852;52.190;4.422;2024-02-23T02:42:06;7.70;71.16
68943;DHT22;60852;52.190;4.422;2024-02-23T02:44:32;7.73;70.99
68943;DHT22;60852;52.190;4.422;2024-02-23T02:46:57;7.80;72.21
68943;DHT22;60852;52.190;4.422;2024-02-23T02:49:23;7.87;72.67
68943;DHT22;60852;52.190;4.422;2024-02-23T02:51:49;7.99;73.97
68943;DHT22;60852;52.190;4.422;2024-02-23T02:54:15;7.93;74.49
68943;DHT22;60852;52.190;4.422;2024-02-23T02:56:47;7.83;74.25
68943;DHT22;60852;52.190;4.422;2024-02-23T02:59:12;7.74;74.67
68943;DHT22;60852;52.190;4.422;2024-02-23T03:01:39;7.67;75.01
68943;DHT22;60852;52.190;4.422;2024-02-23T03:04:04;7.62;74.47
68943;DHT22;60852;52.190;4.422;2024-02-23T03:06:30;7.59;74.02
68943;DHT22;60852;52.190;4.422;2024-02-23T03:08:55;7.57;73.67
68943;DHT22;60852;52.190;4.422;2024-02-23T03:11:21;7.53;73.44
68943;DHT22;60852;52.190;4.422;2024-02-23T03:13:46;7.53;73.61
68943;DHT22;60852;52.190;4.422;2024-02-23T03:16:18;7.62;73.80
68943;DHT22;60852;52.190;4.422;2024-02-23T03:18:44;7.64;73.52
68943;DHT22;60852;52.190;4.422;2024-02-23T03:21:09;7.74;72.75
68943;DHT22;60852;52.190;4.422;2024-02-23T03:23:35;7.73;72.27
68943;DHT22;60852;52.190;4.422;2024-02-23T03:26:02;7.66;72.11
68943;DHT22;60852;52.190;4.422;2024-02-23T03:28:27;7.57;72.38
68943;DHT22;60852;52.190;4.422;2024-02-23T03:30:53;7.60;72.49
68943;DHT22;60852;52.190;4.422;2024-02-23T03:33:19;7.56;72.54
68943;DHT22;60852;52.190;4.422;2024-02-23T03:35:44;7.44;72.41
68943;DHT22;60852;52.190;4.422;2024-02-23T03:38:09;7.53;72.76
68943;DHT22;60852;52.190;4.422;2024-02-23T03:40:35;7.59;72.83
68943;DHT22;60852;52.190;4.422;2024-02-23T03:43:01;7.62;72.77
68943;DHT22;60852;52.190;4.422;2024-02-23T03:45:27;7.60;72.92
68943;DHT22;60852;52.190;4.422;2024-02-23T03:47:53;7.63;73.19
68943;DHT22;60852;52.190;4.422;2024-02-23T03:50:19;7.66;73.17
68943;DHT22;60852;52.190;4.422;2024-02-23T03:52:44;7.70;72.92
68943;DHT22;60852;52.190;4.422;2024-02-23T03:55:10;7.63;72.68
68943;DHT22;60852;52.190;4.422;2024-02-23T03:57:35;7.67;72.72
68943;DHT22;60852;52.190;4.422;2024-02-23T04:00:01;7.67;72.82
68943;DHT22;60852;52.190;4.422;2024-02-23T04:02:27;7.66;73.43
68943;DHT22;60852;52.190;4.422;2024-02-23T04:04:53;7.53;74.64
68943;DHT22;60852;52.190;4.422;2024-02-23T04:07:19;7.43;75.59
68943;DHT22;60852;52.190;4.422;2024-02-23T04:09:44;7.20;76.61
68943;DHT22;60852;52.190;4.422;2024-02-23T04:12:18;7.08;77.34
68943;DHT22;60852;52.190;4.422;2024-02-23T04:14:44;7.01;77.72
68943;DHT22;60852;52.190;4.422;2024-02-23T04:17:10;6.85;78.29
68943;DHT22;60852;52.190;4.422;2024-02-23T04:19:37;6.84;78.49
68943;DHT22;60852;52.190;4.422;2024-02-23T04:22:03;6.81;78.61
68943;DHT22;60852;52.190;4.422;2024-02-23T04:24:29;6.75;78.97
68943;DHT22;60852;52.190;4.422;2024-02-23T04:26:54;6.64;79.17
68943;DHT22;60852;52.190;4.422;2024-02-23T04:29:20;6.65;79.70
68943;DHT22;60852;52.190;4.422;2024-02-23T04:31:45;6.61;79.96
68943;DHT22;60852;52.190;4.422;2024-02-23T04:34:11;6.53;80.27
68943;DHT22;60852;52.190;4.422;2024-02-23T04:36:36;6.50;80.62
68943;DHT22;60852;52.190;4.422;2024-02-23T04:39:01;6.50;80.73
68943;DHT22;60852;52.190;4.422;2024-02-23T04:41:28;6.44;80.85
68943;DHT22;60852;52.190;4.422;2024-02-23T04:43:53;6.53;81.43
68943;DHT22;60852;52.190;4.422;2024-02-23T04:46:23;6.63;81.39
68943;DHT22;60852;52.190;4.422;2024-02-23T04:48:49;6.64;81.59
68943;DHT22;60852;52.190;4.422;2024-02-23T04:51:15;6.50;82.92
68943;DHT22;60852;52.190;4.422;2024-02-23T04:53:40;6.54;83.16
68943;DHT22;60852;52.190;4.422;2024-02-23T04:56:06;6.41;82.30
68943;DHT22;60852;52.190;4.422;2024-02-23T04:58:31;6.37;82.44
68943;DHT22;60852;52.190;4.422;2024-02-23T05:00:57;6.34;82.23
68943;DHT22;60852;52.190;4.422;2024-02-23T05:03:22;6.19;82.52
68943;DHT22;60852;52.190;4.422;2024-02-23T05:05:48;6.19;82.63
68943;DHT22;60852;52.190;4.422;2024-02-23T05:08:21;6.15;82.54
68943;DHT22;60852;52.190;4.422;2024-02-23T05:10:49;6.19;82.56
68943;DHT22;60852;52.190;4.422;2024-02-23T05:13:16;6.17;82.29
68943;DHT22;60852;52.190;4.422;2024-02-23T05:15:42;6.19;82.07
68943;DHT22;60852;52.190;4.422;2024-02-23T05:18:07;6.15;81.39
68943;DHT22;60852;52.190;4.422;2024-02-23T05:20:33;6.27;81.19
68943;DHT22;60852;52.190;4.422;2024-02-23T05:22:58;6.30;80.87
68943;DHT22;60852;52.190;4.422;2024-02-23T05:25:24;6.34;80.50
68943;DHT22;60852;52.190;4.422;2024-02-23T05:27:51;6.46;80.23
68943;DHT22;60852;52.190;4.422;2024-02-23T05:30:16;6.47;80.03
68943;DHT22;60852;52.190;4.422;2024-02-23T05:32:42;6.43;80.00
68943;DHT22;60852;52.190;4.422;2024-02-23T05:35:07;6.44;80.45
68943;DHT22;60852;52.190;4.422;2024-02-23T05:37:35;6.44;80.67
68943;DHT22;60852;52.190;4.422;2024-02-23T05:40:00;6.50;80.86
68943;DHT22;60852;52.190;4.422;2024-02-23T05:42:29;6.47;81.18
68943;DHT22;60852;52.190;4.422;2024-02-23T05:44:55;6.55;81.34
68943;DHT22;60852;52.190;4.422;2024-02-23T05:47:20;6.61;81.44
68943;DHT22;60852;52.190;4.422;2024-02-23T05:49:47;6.61;81.58
68943;DHT22;60852;52.190;4.422;2024-02-23T05:52:12;6.63;81.64
68943;DHT22;60852;52.190;4.422;2024-02-23T05:54:38;6.60;81.99
68943;DHT22;60852;52.190;4.422;2024-02-23T05:57:03;6.70;81.90
68943;DHT22;60852;52.190;4.422;2024-02-23T05:59:30;6.73;81.39
68943;DHT22;60852;52.190;4.422;2024-02-23T06:01:55;6.67;81.26
68943;DHT22;60852;52.190;4.422;2024-02-23T06:04:24;6.61;81.13
68943;DHT22;60852;52.190;4.422;2024-02-23T06:06:50;6.65;81.15
68943;DHT22;60852;52.190;4.422;2024-02-23T06:09:15;6.68;80.79
68943;DHT22;60852;52.190;4.422;2024-02-23T06:11:41;6.77;80.52
68943;DHT22;60852;52.190;4.422;2024-02-23T06:14:07;6.78;80.17
68943;DHT22;60852;52.190;4.422;2024-02-23T06:16:33;6.83;80.04
68943;DHT22;60852;52.190;4.422;2024-02-23T06:18:58;6.89;80.18
68943;DHT22;60852;52.190;4.422;2024-02-23T06:21:24;7.02;79.67
68943;DHT22;60852;52.190;4.422;2024-02-23T06:23:49;6.91;79.93
68943;DHT22;60852;52.190;4.422;2024-02-23T06:26:17;6.89;80.20
68943;DHT22;60852;52.190;4.422;2024-02-23T06:28:43;6.84;80.43
68943;DHT22;60852;52.190;4.422;2024-02-23T06:31:09;6.81;80.33
68943;DHT22;60852;52.190;4.422;2024-02-23T06:33:35;6.81;80.14
68943;DHT22;60852;52.190;4.422;2024-02-23T06:36:01;6.75;80.19
68943;DHT22;60852;52.190;4.422;2024-02-23T06:38:27;6.70;80.13
68943;DHT22;60852;52.190;4.422;2024-02-23T06:40:53;6.75;80.17
68943;DHT22;60852;52.190;4.422;2024-02-23T06:43:20;6.89;79.62
68943;DHT22;60852;52.190;4.422;2024-02-23T06:45:45;6.77;79.31
68943;DHT22;60852;52.190;4.422;2024-02-23T06:48:11;6.88;79.42
68943;DHT22;60852;52.190;4.422;2024-02-23T06:50:36;6.87;79.10
68943;DHT22;60852;52.190;4.422;2024-02-23T06:53:02;6.91;78.84
68943;DHT22;60852;52.190;4.422;2024-02-23T06:55:28;6.96;78.66
68943;DHT22;60852;52.190;4.422;2024-02-23T06:57:54;6.89;78.69
68943;DHT22;60852;52.190;4.422;2024-02-23T07:00:22;6.88;78.55
68943;DHT22;60852;52.190;4.422;2024-02-23T07:02:48;6.89;78.38
68943;DHT22;60852;52.190;4.422;2024-02-23T07:05:13;6.83;78.32
68943;DHT22;60852;52.190;4.422;2024-02-23T07:07:40;6.87;78.22
68943;DHT22;60852;52.190;4.422;2024-02-23T07:10:07;6.77;78.31
68943;DHT22;60852;52.190;4.422;2024-02-23T07:12:32;6.74;78.73
68943;DHT22;60852;52.190;4.422;2024-02-23T07:14:58;6.71;78.75
68943;DHT22;60852;52.190;4.422;2024-02-23T07:17:23;6.78;79.03
68943;DHT22;60852;52.190;4.422;2024-02-23T07:19:49;6.83;79.47
68943;DHT22;60852;52.190;4.422;2024-02-23T07:22:16;6.74;79.43
68943;DHT22;60852;52.190;4.422;2024-02-23T07:24:43;6.78;79.92
68943;DHT22;60852;52.190;4.422;2024-02-23T07:27:09;6.78;80.20
68943;DHT22;60852;52.190;4.422;2024-02-23T07:29:35;6.75;80.56
68943;DHT22;60852;52.190;4.422;2024-02-23T07:32:01;6.81;80.66
68943;DHT22;60852;52.190;4.422;2024-02-23T07:34:26;6.74;81.00
68943;DHT22;60852;52.190;4.422;2024-02-23T07:36:52;6.73;81.50
68943;DHT22;60852;52.190;4.422;2024-02-23T07:39:17;6.68;81.66
68943;DHT22;60852;52.190;4.422;2024-02-23T07:41:43;6.58;81.82
68943;DHT22;60852;52.190;4.422;2024-02-23T07:44:09;6.61;82.42
68943;DHT22;60852;52.190;4.422;2024-02-23T07:46:34;6.40;83.06
68943;DHT22;60852;52.190;4.422;2024-02-23T07:48:59;6.19;83.97
68943;DHT22;60852;52.190;4.422;2024-02-23T07:51:25;6.19;84.00
68943;DHT22;60852;52.190;4.422;2024-02-23T07:53:50;6.02;84.34
68943;DHT22;60852;52.190;4.422;2024-02-23T07:56:16;5.88;84.75
68943;DHT22;60852;52.190;4.422;2024-02-23T07:58:42;5.94;84.87
68943;DHT22;60852;52.190;4.422;2024-02-23T08:01:07;5.75;84.76
68943;DHT22;60852;52.190;4.422;2024-02-23T08:03:33;5.76;85.18
68943;DHT22;60852;52.190;4.422;2024-02-23T08:05:58;5.78;85.56
68943;DHT22;60852;52.190;4.422;2024-02-23T08:08:24;5.85;85.57
68943;DHT22;60852;52.190;4.422;2024-02-23T08:10:51;6.02;85.56
68943;DHT22;60852;52.190;4.422;2024-02-23T08:13:16;6.03;85.41
68943;DHT22;60852;52.190;4.422;2024-02-23T08:15:43;6.09;85.05
68943;DHT22;60852;52.190;4.422;2024-02-23T08:18:09;6.10;85.33
68943;DHT22;60852;52.190;4.422;2024-02-23T08:20:34;6.17;85.36
68943;DHT22;60852;52.190;4.422;2024-02-23T08:23:00;6.07;85.24
68943;DHT22;60852;52.190;4.422;2024-02-23T08:25:25;6.09;85.64
68943;DHT22;60852;52.190;4.422;2024-02-23T08:27:54;6.15;85.67
68943;DHT22;60852;52.190;4.422;2024-02-23T08:30:20;6.17;85.86
68943;DHT22;60852;52.190;4.422;2024-02-23T08:32:46;6.20;85.93
68943;DHT22;60852;52.190;4.422;2024-02-23T08:35:11;6.22;85.83
68943;DHT22;60852;52.190;4.422;2024-02-23T08:37:37;6.16;86.09
68943;DHT22;60852;52.190;4.422;2024-02-23T08:40:05;6.16;86.18
68943;DHT22;60852;52.190;4.422;2024-02-23T08:42:31;6.20;86.42
68943;DHT22;60852;52.190;4.422;2024-02-23T08:44:57;6.22;86.29
68943;DHT22;60852;52.190;4.422;2024-02-23T08:47:22;6.16;86.68
68943;DHT22;60852;52.190;4.422;2024-02-23T08:49:48;6.16;86.54
68943;DHT22;60852;52.190;4.422;2024-02-23T08:52:13;6.17;86.78
68943;DHT22;60852;52.190;4.422;2024-02-23T08:54:39;6.13;86.32
68943;DHT22;60852;52.190;4.422;2024-02-23T08:57:05;6.07;86.81
68943;DHT22;60852;52.190;4.422;2024-02-23T08:59:30;6.12;86.72
68943;DHT22;60852;52.190;4.422;2024-02-23T09:01:55;6.16;86.43
68943;DHT22;60852;52.190;4.422;2024-02-23T09:04:21;6.20;86.23
68943;DHT22;60852;52.190;4.422;2024-02-23T09:06:46;6.23;86.36
68943;DHT22;60852;52.190;4.422;2024-02-23T09:09:12;6.27;86.22
68943;DHT22;60852;52.190;4.422;2024-02-23T09:11:37;6.33;86.01
68943;DHT22;60852;52.190;4.422;2024-02-23T09:14:03;6.37;85.80
68943;DHT22;60852;52.190;4.422;2024-02-23T09:16:29;6.50;85.85
68943;DHT22;60852;52.190;4.422;2024-02-23T09:18:54;6.54;85.19
68943;DHT22;60852;52.190;4.422;2024-02-23T09:21:20;6.58;85.19
68943;DHT22;60852;52.190;4.422;2024-02-23T09:23:45;6.55;84.64
68943;DHT22;60852;52.190;4.422;2024-02-23T09:26:11;6.55;84.84
68943;DHT22;60852;52.190;4.422;2024-02-23T09:28:37;6.53;84.59
68943;DHT22;60852;52.190;4.422;2024-02-23T09:31:03;6.57;84.70
68943;DHT22;60852;52.190;4.422;2024-02-23T09:33:30;6.65;84.76
68943;DHT22;60852;52.190;4.422;2024-02-23T09:35:57;6.68;84.83
68943;DHT22;60852;52.190;4.422;2024-02-23T09:38:22;6.71;84.38
68943;DHT22;60852;52.190;4.422;2024-02-23T09:40:53;6.80;84.30
68943;DHT22;60852;52.190;4.422;2024-02-23T09:43:21;6.85;84.02
68943;DHT22;60852;52.190;4.422;2024-02-23T09:45:51;6.91;83.73
68943;DHT22;60852;52.190;4.422;2024-02-23T09:48:19;7.06;83.62
68943;DHT22;60852;52.190;4.422;2024-02-23T09:50:47;7.16;82.86
68943;DHT22;60852;52.190;4.422;2024-02-23T09:53:13;7.06;82.73
68943;DHT22;60852;52.190;4.422;2024-02-23T09:55:39;7.29;83.11
68943;DHT22;60852;52.190;4.422;2024-02-23T09:58:07;7.15;81.80
68943;DHT22;60852;52.190;4.422;2024-02-23T10:00:36;7.30;81.82
68943;DHT22;60852;52.190;4.422;2024-02-23T10:03:04;7.40;82.18
68943;DHT22;60852;52.190;4.422;2024-02-23T10:05:30;7.53;81.46
68943;DHT22;60852;52.190;4.422;2024-02-23T10:07:57;7.44;80.54
68943;DHT22;60852;52.190;4.422;2024-02-23T10:10:30;7.63;80.39
68943;DHT22;60852;52.190;4.422;2024-02-23T10:12:58;7.62;80.35
68943;DHT22;60852;52.190;4.422;2024-02-23T10:15:24;7.71;80.41
68943;DHT22;60852;52.190;4.422;2024-02-23T10:17:49;7.63;80.20
68943;DHT22;60852;52.190;4.422;2024-02-23T10:20:15;7.57;80.19
68943;DHT22;60852;52.190;4.422;2024-02-23T10:22:40;7.64;80.13
68943;DHT22;60852;52.190;4.422;2024-02-23T10:25:06;7.71;79.98
68943;DHT22;60852;52.190;4.422;2024-02-23T10:27:31;7.69;79.93
68943;DHT22;60852;52.190;4.422;2024-02-23T10:30:00;7.69;79.59
68943;DHT22;60852;52.190;4.422;2024-02-23T10:32:29;7.80;79.80
68943;DHT22;60852;52.190;4.422;2024-02-23T10:35:00;7.93;80.12
68943;DHT22;60852;52.190;4.422;2024-02-23T10:37:29;7.95;80.53
68943;DHT22;60852;52.190;4.422;2024-02-23T10:39:57;7.74;80.84
68943;DHT22;60852;52.190;4.422;2024-02-23T10:42:31;7.74;81.37
68943;DHT22;60852;52.190;4.422;2024-02-23T10:44:59;7.71;81.57
68943;DHT22;60852;52.190;4.422;2024-02-23T10:47:28;7.75;81.43
68943;DHT22;60852;52.190;4.422;2024-02-23T10:49:59;7.91;81.36
68943;DHT22;60852;52.190;4.422;2024-02-23T10:52:26;7.99;80.96
68943;DHT22;60852;52.190;4.422;2024-02-23T10:54:52;7.99;80.38
68943;DHT22;60852;52.190;4.422;2024-02-23T10:57:18;8.04;80.12
68943;DHT22;60852;52.190;4.422;2024-02-23T10:59:46;8.08;80.27
68943;DHT22;60852;52.190;4.422;2024-02-23T11:02:14;8.22;80.27
68943;DHT22;60852;52.190;4.422;2024-02-23T11:04:48;8.14;80.04
68943;DHT22;60852;52.190;4.422;2024-02-23T11:07:19;8.20;79.85
68943;DHT22;60852;52.190;4.422;2024-02-23T11:09:58;8.32;80.54
68943;DHT22;60852;52.190;4.422;2024-02-23T11:12:25;8.41;80.37
68943;DHT22;60852;52.190;4.422;2024-02-23T11:14:51;8.43;79.85
68943;DHT22;60852;52.190;4.422;2024-02-23T11:17:22;8.24;79.58
68943;DHT22;60852;52.190;4.422;2024-02-23T11:19:50;8.46;79.37
68943;DHT22;60852;52.190;4.422;2024-02-23T11:22:24;8.69;78.76
68943;DHT22;60852;52.190;4.422;2024-02-23T11:24:51;8.67;78.10
68943;DHT22;60852;52.190;4.422;2024-02-23T11:27:16;8.49;78.41
68943;DHT22;60852;52.190;4.422;2024-02-23T11:29:48;8.32;79.44
68943;DHT22;60852;52.190;4.422;2024-02-23T11:32:38;8.53;79.50
68943;DHT22;60852;52.190;4.422;2024-02-23T11:35:06;8.77;79.35
68943;DHT22;60852;52.190;4.422;2024-02-23T11:37:32;8.94;78.74
68943;DHT22;60852;52.190;4.422;2024-02-23T11:40:01;9.01;78.85
68943;DHT22;60852;52.190;4.422;2024-02-23T11:42:29;8.94;78.44
68943;DHT22;60852;52.190;4.422;2024-02-23T11:44:56;9.03;78.45
68943;DHT22;60852;52.190;4.422;2024-02-23T11:47:23;8.90;77.69
68943;DHT22;60852;52.190;4.422;2024-02-23T11:49:50;8.80;78.04
68943;DHT22;60852;52.190;4.422;2024-02-23T11:52:15;8.83;78.38
68943;DHT22;60852;52.190;4.422;2024-02-23T11:54:42;8.91;79.17
68943;DHT22;60852;52.190;4.422;2024-02-23T11:57:07;8.91;78.51
68943;DHT22;60852;52.190;4.422;2024-02-23T11:59:33;9.05;78.30
68943;DHT22;60852;52.190;4.422;2024-02-23T12:01:59;8.91;77.05
68943;DHT22;60852;52.190;4.422;2024-02-23T12:04:26;8.76;76.84
68943;DHT22;60852;52.190;4.422;2024-02-23T12:06:52;8.85;76.66
68943;DHT22;60852;52.190;4.422;2024-02-23T12:09:18;9.07;76.21
68943;DHT22;60852;52.190;4.422;2024-02-23T12:11:44;9.24;75.84
68943;DHT22;60852;52.190;4.422;2024-02-23T12:14:10;9.28;75.65
68943;DHT22;60852;52.190;4.422;2024-02-23T12:16:36;9.14;74.98
68943;DHT22;60852;52.190;4.422;2024-02-23T12:19:02;9.20;74.90
68943;DHT22;60852;52.190;4.422;2024-02-23T12:21:28;9.13;74.30
68943;DHT22;60852;52.190;4.422;2024-02-23T12:23:54;9.07;74.50
68943;DHT22;60852;52.190;4.422;2024-02-23T12:26:19;9.05;74.36
68943;DHT22;60852;52.190;4.422;2024-02-23T12:28:46;9.15;74.66
68943;DHT22;60852;52.190;4.422;2024-02-23T12:31:12;9.08;74.47
68943;DHT22;60852;52.190;4.422;2024-02-23T12:33:39;9.14;74.68
68943;DHT22;60852;52.190;4.422;2024-02-23T12:36:06;9.42;74.80
68943;DHT22;60852;52.190;4.422;2024-02-23T12:38:33;9.69;73.35
68943;DHT22;60852;52.190;4.422;2024-02-23T12:41:00;9.62;72.25
68943;DHT22;60852;52.190;4.422;2024-02-23T12:43:25;9.61;73.11
68943;DHT22;60852;52.190;4.422;2024-02-23T12:45:55;9.55;73.17
68943;DHT22;60852;52.190;4.422;2024-02-23T12:48:22;9.62;73.22
68943;DHT22;60852;52.190;4.422;2024-02-23T12:50:49;9.53;73.41
68943;DHT22;60852;52.190;4.422;2024-02-23T12:56:03;9.71;72.65
68943;DHT22;60852;52.190;4.422;2024-02-23T12:58:30;9.53;72.36
68943;DHT22;60852;52.190;4.422;2024-02-23T13:00:56;9.41;73.41
68943;DHT22;60852;52.190;4.422;2024-02-23T13:03:23;9.32;73.03
68943;DHT22;60852;52.190;4.422;2024-02-23T13:05:48;9.36;73.82
68943;DHT22;60852;52.190;4.422;2024-02-23T13:08:14;9.49;73.76
68943;DHT22;60852;52.190;4.422;2024-02-23T13:10:40;9.48;73.01
68943;DHT22;60852;52.190;4.422;2024-02-23T13:13:06;9.49;72.88
68943;DHT22;60852;52.190;4.422;2024-02-23T13:15:31;9.65;72.80
68943;DHT22;60852;52.190;4.422;2024-02-23T13:17:57;9.73;71.94
68943;DHT22;60852;52.190;4.422;2024-02-23T13:20:22;9.65;71.58
68943;DHT22;60852;52.190;4.422;2024-02-23T13:22:48;9.72;71.67
68943;DHT22;60852;52.190;4.422;2024-02-23T13:25:14;9.71;71.55
68943;DHT22;60852;52.190;4.422;2024-02-23T13:27:40;9.59;71.68
68943;DHT22;60852;52.190;4.422;2024-02-23T13:30:05;9.62;72.14
68943;DHT22;60852;52.190;4.422;2024-02-23T13:32:32;9.63;72.00
68943;DHT22;60852;52.190;4.422;2024-02-23T13:34:57;9.53;71.38
68943;DHT22;60852;52.190;4.422;2024-02-23T13:37:23;9.61;71.91
68943;DHT22;60852;52.190;4.422;2024-02-23T13:39:48;9.65;71.60
68943;DHT22;60852;52.190;4.422;2024-02-23T13:42:14;9.69;71.66
68943;DHT22;60852;52.190;4.422;2024-02-23T13:44:39;9.79;71.71
68943;DHT22;60852;52.190;4.422;2024-02-23T13:47:05;9.72;70.86
68943;DHT22;60852;52.190;4.422;2024-02-23T13:49:30;9.58;71.09
68943;DHT22;60852;52.190;4.422;2024-02-23T13:51:56;9.49;71.66
68943;DHT22;60852;52.190;4.422;2024-02-23T13:54:21;9.53;72.06
68943;DHT22;60852;52.190;4.422;2024-02-23T13:56:47;9.59;71.61
68943;DHT22;60852;52.190;4.422;2024-02-23T13:59:12;9.69;72.07
68943;DHT22;60852;52.190;4.422;2024-02-23T14:01:38;9.75;72.24
68943;DHT22;60852;52.190;4.422;2024-02-23T14:04:07;9.82;72.15
68943;DHT22;60852;52.190;4.422;2024-02-23T14:06:35;9.68;72.07
68943;DHT22;60852;52.190;4.422;2024-02-23T14:09:00;9.63;71.60
68943;DHT22;60852;52.190;4.422;2024-02-23T14:11:28;9.52;71.87
68943;DHT22;60852;52.190;4.422;2024-02-23T14:13:54;9.62;72.03
68943;DHT22;60852;52.190;4.422;2024-02-23T14:16:20;9.75;71.82
68943;DHT22;60852;52.190;4.422;2024-02-23T14:18:45;9.75;71.64
68943;DHT22;60852;52.190;4.422;2024-02-23T14:21:11;9.72;72.16
68943;DHT22;60852;52.190;4.422;2024-02-23T14:23:39;9.68;71.65
68943;DHT22;60852;52.190;4.422;2024-02-23T14:26:04;9.45;71.69
68943;DHT22;60852;52.190;4.422;2024-02-23T14:28:30;9.20;71.64
68943;DHT22;60852;52.190;4.422;2024-02-23T14:30:55;9.05;71.76
68943;DHT22;60852;52.190;4.422;2024-02-23T14:33:23;9.14;72.11
68943;DHT22;60852;52.190;4.422;2024-02-23T14:35:51;9.24;72.15
68943;DHT22;60852;52.190;4.422;2024-02-23T14:38:17;9.30;72.27
68943;DHT22;60852;52.190;4.422;2024-02-23T14:40:43;9.24;72.38
68943;DHT22;60852;52.190;4.422;2024-02-23T14:43:09;9.27;72.36
68943;DHT22;60852;52.190;4.422;2024-02-23T14:45:35;9.28;72.16
68943;DHT22;60852;52.190;4.422;2024-02-23T14:48:01;9.34;72.32
68943;DHT22;60852;52.190;4.422;2024-02-23T14:50:27;9.18;71.76
68943;DHT22;60852;52.190;4.422;2024-02-23T14:52:52;9.18;71.94
68943;DHT22;60852;52.190;4.422;2024-02-23T14:55:19;9.00;71.88
68943;DHT22;60852;52.190;4.422;2024-02-23T14:57:44;8.90;72.22
68943;DHT22;60852;52.190;4.422;2024-02-23T15:00:10;8.94;72.43
68943;DHT22;60852;52.190;4.422;2024-02-23T15:02:36;9.01;72.38
68943;DHT22;60852;52.190;4.422;2024-02-23T15:05:01;8.96;72.45
68943;DHT22;60852;52.190;4.422;2024-02-23T15:07:27;9.01;72.65
68943;DHT22;60852;52.190;4.422;2024-02-23T15:09:53;9.04;72.52
68943;DHT22;60852;52.190;4.422;2024-02-23T15:12:19;9.08;72.45
68943;DHT22;60852;52.190;4.422;2024-02-23T15:14:44;9.03;72.09
68943;DHT22;60852;52.190;4.422;2024-02-23T15:17:10;9.07;72.28
68943;DHT22;60852;52.190;4.422;2024-02-23T15:19:35;9.13;72.36
68943;DHT22;60852;52.190;4.422;2024-02-23T15:22:01;9.10;72.19
68943;DHT22;60852;52.190;4.422;2024-02-23T15:24:26;9.00;72.42
68943;DHT22;60852;52.190;4.422;2024-02-23T15:26:52;9.05;72.71
68943;DHT22;60852;52.190;4.422;2024-02-23T15:29:18;9.17;72.34
68943;DHT22;60852;52.190;4.422;2024-02-23T15:31:43;9.17;72.23
68943;DHT22;60852;52.190;4.422;2024-02-23T15:34:09;9.24;72.41
68943;DHT22;60852;52.190;4.422;2024-02-23T15:36:35;9.28;71.82
68943;DHT22;60852;52.190;4.422;2024-02-23T15:39:00;9.30;72.29
68943;DHT22;60852;52.190;4.422;2024-02-23T15:41:32;9.25;72.03